createdAt,value
2018-11-21T00:00:23.545Z,100670.74
2018-11-21T00:01:27.626Z,100679.23
2018-11-21T00:02:31.774Z,100674.98
2018-11-21T00:03:35.837Z,100672.09
2018-11-21T00:04:39.845Z,100665.11
2018-11-21T00:05:43.911Z,100668.42
2018-11-21T00:06:47.923Z,100673.81
2018-11-21T00:07:52.040Z,100678.81
2018-11-21T00:09:59.543Z,100690.38
2018-11-21T00:11:03.585Z,100687.39
2018-11-21T00:12:07.607Z,100690.11
2018-11-21T00:13:11.641Z,100690.58
2018-11-21T00:14:15.664Z,100689.25
2018-11-21T00:15:19.645Z,100692.86
2018-11-21T00:16:24.048Z,100692.94
2018-11-21T00:17:28.028Z,100703.02
2018-11-21T00:18:32.069Z,100698.33
2018-11-21T00:19:36.064Z,100699.64
2018-11-21T00:20:40.400Z,100699.14
2018-11-21T00:21:44.824Z,100698.21
2018-11-21T00:22:48.859Z,100703.02
2018-11-21T00:23:52.885Z,100705.65
2018-11-21T00:24:57.133Z,100707.35
2018-11-21T00:26:01.089Z,100703.87
2018-11-21T00:27:05.151Z,100700.30
2018-11-21T00:28:09.172Z,100702.08
2018-11-21T00:29:13.160Z,100699.53
2018-11-21T00:30:17.295Z,100708.02
2018-11-21T00:31:21.374Z,100697.56
2018-11-21T00:32:26.388Z,100702.48
2018-11-21T00:33:30.530Z,100700.66
2018-11-21T00:34:34.558Z,100707.25
2018-11-21T00:35:38.582Z,100707.75
2018-11-21T00:36:42.721Z,100699.92
2018-11-21T00:37:47.115Z,100700.78
2018-11-21T00:38:51.216Z,100699.46
2018-11-21T00:39:55.388Z,100698.23
2018-11-21T00:40:59.441Z,100694.73
2018-11-21T00:42:03.806Z,100700.01
2018-11-21T00:43:07.840Z,100704.92
2018-11-21T00:44:13.975Z,100708.88
2018-11-21T00:45:16.251Z,100704.08
2018-11-21T00:46:20.344Z,100711.59
2018-11-21T00:47:24.360Z,100705.13
2018-11-21T00:48:28.425Z,100711.80
2018-11-21T00:49:32.480Z,100708.42
2018-11-21T00:50:36.700Z,100709.73
2018-11-21T00:51:41.208Z,100718.11
2018-11-21T00:52:45.351Z,100711.72
2018-11-21T00:53:49.452Z,100722.73
2018-11-21T00:54:53.509Z,100716.61
2018-11-21T00:55:57.457Z,100719.44
2018-11-21T00:57:01.442Z,100726.41
2018-11-21T00:58:05.629Z,100727.80
2018-11-21T00:59:09.769Z,100731.41
2018-11-21T01:00:13.792Z,100731.87
2018-11-21T01:01:18.145Z,100737.60
2018-11-21T01:02:22.335Z,100738.65
2018-11-21T01:03:26.281Z,100738.27
2018-11-21T01:04:30.618Z,100739.20
2018-11-21T01:05:34.655Z,100732.72
2018-11-21T01:06:38.700Z,100740.16
2018-11-21T01:07:42.749Z,100738.07
2018-11-21T01:08:47.046Z,100737.72
2018-11-21T01:09:51.425Z,100738.54
2018-11-21T01:10:55.444Z,100743.45
2018-11-21T01:11:59.470Z,100740.44
2018-11-21T01:13:03.745Z,100741.75
2018-11-21T01:14:07.809Z,100745.70
2018-11-21T01:15:11.943Z,100745.23
2018-11-21T01:16:16.290Z,100745.23
2018-11-21T01:17:20.419Z,100743.53
2018-11-21T01:18:24.866Z,100738.73
2018-11-21T01:19:28.996Z,100744.38
2018-11-21T01:20:33.096Z,100743.53
2018-11-21T01:21:37.188Z,100744.47
2018-11-21T01:22:41.305Z,100745.78
2018-11-21T01:23:45.343Z,100747.59
2018-11-21T01:24:49.375Z,100753.22
2018-11-21T01:25:53.423Z,100753.68
2018-11-21T01:26:57.884Z,100760.27
2018-11-21T01:28:02.278Z,100759.91
2018-11-21T01:29:06.383Z,100760.84
2018-11-21T01:30:10.501Z,100770.44
2018-11-21T01:31:14.586Z,100770.91
2018-11-21T01:32:18.606Z,100766.11
2018-11-21T01:33:22.691Z,100766.11
2018-11-21T01:34:26.701Z,100762.63
2018-11-21T01:35:30.725Z,100759.14
2018-11-21T01:36:35.521Z,100762.16
2018-11-21T01:37:39.532Z,100763.48
2018-11-21T01:38:43.587Z,100759.52
2018-11-21T01:39:47.623Z,100766.11
2018-11-21T01:40:51.658Z,100763.94
2018-11-21T01:41:55.853Z,100760.84
2018-11-21T01:42:59.883Z,100753.52
2018-11-21T01:44:03.996Z,100756.50
2018-11-21T01:45:08.278Z,100762.34
2018-11-21T01:46:12.264Z,100760.64
2018-11-21T01:47:16.343Z,100763.66
2018-11-21T01:48:20.351Z,100763.75
2018-11-21T01:49:24.856Z,100765.91
2018-11-21T01:50:29.247Z,100766.88
2018-11-21T01:51:33.729Z,100770.44
2018-11-21T01:52:37.784Z,100770.44
2018-11-21T01:53:41.922Z,100771.29
2018-11-21T01:54:46.005Z,100784.45
2018-11-21T01:55:50.049Z,100785.31
2018-11-21T01:56:54.106Z,100785.39
2018-11-21T01:57:58.287Z,100800.72
2018-11-21T01:59:02.256Z,100796.39
2018-11-21T02:00:08.347Z,100800.45
2018-11-21T02:01:12.365Z,100800.45
2018-11-21T02:02:16.653Z,100806.56
2018-11-21T02:03:21.075Z,100810.98
2018-11-21T02:04:25.163Z,100807.95
2018-11-21T02:05:29.412Z,100803.16
2018-11-21T02:06:33.560Z,100805.40
2018-11-21T02:07:37.695Z,100802.77
2018-11-21T02:08:42.052Z,100802.77
2018-11-21T02:09:46.071Z,100808.03
2018-11-21T02:10:50.141Z,100808.03
2018-11-21T02:11:54.196Z,100807.69
2018-11-21T02:12:58.286Z,100811.24
2018-11-21T02:14:02.760Z,100805.59
2018-11-21T02:15:06.915Z,100804.77
2018-11-21T02:16:10.927Z,100810.86
2018-11-21T02:17:15.003Z,100813.13
2018-11-21T02:18:19.005Z,100814.45
2018-11-21T02:19:23.097Z,100819.25
2018-11-21T02:20:27.102Z,100812.75
2018-11-21T02:21:31.146Z,100819.33
2018-11-21T02:22:35.176Z,100816.23
2018-11-21T02:23:39.464Z,100825.52
2018-11-21T02:24:43.538Z,100817.63
2018-11-21T02:25:47.551Z,100814.64
2018-11-21T02:26:51.590Z,100822.53
2018-11-21T02:27:55.633Z,100826.95
2018-11-21T02:28:59.726Z,100826.09
2018-11-21T02:30:03.906Z,100830.05
2018-11-21T02:31:08.019Z,100830.05
2018-11-21T02:32:12.324Z,100827.02
2018-11-21T02:33:16.363Z,100830.62
2018-11-21T02:34:20.446Z,100834.56
2018-11-21T02:35:24.515Z,100828.80
2018-11-21T02:36:28.621Z,100829.77
2018-11-21T02:37:32.772Z,100823.65
2018-11-21T02:38:36.812Z,100826.67
2018-11-21T02:39:40.870Z,100827.59
2018-11-21T02:40:44.893Z,100833.33
2018-11-21T02:41:49.051Z,100829.38
2018-11-21T02:42:53.043Z,100832.48
2018-11-21T02:43:57.089Z,100828.14
2018-11-21T02:45:01.100Z,100833.41
2018-11-21T02:46:05.606Z,100828.14
2018-11-21T02:47:09.967Z,100839.16
2018-11-21T02:48:14.013Z,100838.31
2018-11-21T02:49:18.529Z,100838.78
2018-11-21T02:50:22.609Z,100842.27
2018-11-21T02:51:26.662Z,100843.19
2018-11-21T02:52:30.832Z,100839.24
2018-11-21T02:53:35.358Z,100835.40
2018-11-21T02:54:39.436Z,100836.22
2018-11-21T02:55:43.480Z,100837.53
2018-11-21T02:57:19.756Z,100836.22
2018-11-21T02:58:23.840Z,100838.50
2018-11-21T02:59:27.944Z,100845.08
2018-11-21T03:00:32.009Z,100846.00
2018-11-21T03:01:36.023Z,100853.91
2018-11-21T03:02:40.172Z,100855.22
2018-11-21T03:03:44.529Z,100862.73
2018-11-21T03:04:48.564Z,100857.85
2018-11-21T03:05:53.006Z,100867.98
2018-11-21T03:06:57.123Z,100863.12
2018-11-21T03:08:01.923Z,100865.17
2018-11-21T03:09:07.595Z,100860.41
2018-11-21T03:10:11.762Z,100866.49
2018-11-21T03:11:16.290Z,100865.17
2018-11-21T03:12:20.299Z,100864.25
2018-11-21T03:13:28.409Z,100873.46
2018-11-21T03:14:28.464Z,100875.70
2018-11-21T03:15:32.577Z,100880.97
2018-11-21T03:16:36.647Z,100880.61
2018-11-21T03:17:40.743Z,100879.66
2018-11-21T03:18:45.119Z,100876.20
2018-11-21T03:19:49.159Z,100875.70
2018-11-21T03:20:53.517Z,100875.70
2018-11-21T03:21:57.618Z,100873.08
2018-11-21T03:23:01.679Z,100875.70
2018-11-21T03:24:05.951Z,100879.66
2018-11-21T03:25:10.399Z,100881.82
2018-11-21T03:26:14.467Z,100890.19
2018-11-21T03:27:18.575Z,100888.05
2018-11-21T03:28:22.663Z,100888.13
2018-11-21T03:29:26.765Z,100890.36
2018-11-21T03:30:31.197Z,100894.31
2018-11-21T03:31:35.314Z,100889.05
2018-11-21T03:32:39.998Z,100883.04
2018-11-21T03:33:44.545Z,100881.72
2018-11-21T03:34:48.511Z,100886.59
2018-11-21T03:35:52.603Z,100898.83
2018-11-21T03:36:56.737Z,100897.98
2018-11-21T03:38:01.655Z,100899.76
2018-11-21T03:39:09.315Z,100904.66
2018-11-21T03:40:13.526Z,100905.13
2018-11-21T03:41:17.702Z,100913.88
2018-11-21T03:42:21.770Z,100915.20
2018-11-21T03:43:25.800Z,100919.22
2018-11-21T03:44:29.914Z,100932.37
2018-11-21T03:45:33.930Z,100930.67
2018-11-21T03:46:38.097Z,100918.83
2018-11-21T03:47:42.239Z,100919.29
2018-11-21T03:48:46.622Z,100917.61
2018-11-21T03:49:50.992Z,100915.84
2018-11-21T03:50:55.047Z,100919.39
2018-11-21T03:51:59.399Z,100919.86
2018-11-21T03:53:03.445Z,100910.75
2018-11-21T03:54:07.685Z,100922.10
2018-11-21T03:55:12.119Z,100915.63
2018-11-21T03:56:16.114Z,100914.38
2018-11-21T03:57:20.220Z,100915.23
2018-11-21T03:58:24.426Z,100911.39
2018-11-21T03:59:28.294Z,100907.45
2018-11-21T04:00:32.791Z,100911.00
2018-11-21T04:01:36.878Z,100911.00
2018-11-21T04:02:41.333Z,100911.93
2018-11-21T04:03:45.563Z,100913.70
2018-11-21T04:04:49.661Z,100918.51
2018-11-21T04:05:53.688Z,100913.24
2018-11-21T04:06:57.787Z,100902.36
2018-11-21T04:08:01.782Z,100909.77
2018-11-21T04:09:10.876Z,100906.31
2018-11-21T04:10:15.246Z,100909.77
2018-11-21T04:11:19.609Z,100920.67
2018-11-21T04:12:24.045Z,100927.36
2018-11-21T04:13:28.065Z,100930.81
2018-11-21T04:14:32.103Z,100932.98
2018-11-21T04:15:36.140Z,100934.69
2018-11-21T04:16:40.136Z,100926.41
2018-11-21T04:17:44.679Z,100925.09
2018-11-21T04:18:52.987Z,100929.42
2018-11-21T04:19:57.439Z,100917.66
2018-11-21T04:21:01.481Z,100923.77
2018-11-21T04:22:05.534Z,100925.09
2018-11-21T04:23:09.553Z,100934.69
2018-11-21T04:24:13.583Z,100946.14
2018-11-21T04:25:17.909Z,100947.92
2018-11-21T04:26:22.319Z,100955.06
2018-11-21T04:27:26.343Z,100963.88
2018-11-21T04:28:30.453Z,100969.25
2018-11-21T04:29:34.867Z,100968.96
2018-11-21T04:30:38.861Z,100973.91
2018-11-21T04:31:43.219Z,100980.66
2018-11-21T04:32:47.285Z,100979.97
2018-11-21T04:33:51.373Z,100979.79
2018-11-21T04:34:55.405Z,100988.67
2018-11-21T04:35:59.831Z,100987.06
2018-11-21T04:37:03.944Z,100995.06
2018-11-21T04:38:07.958Z,100983.75
2018-11-21T04:39:12.645Z,100973.23
2018-11-21T04:40:16.694Z,100975.01
2018-11-21T04:41:20.830Z,100970.70
2018-11-21T04:42:24.881Z,100970.31
2018-11-21T04:43:29.277Z,100969.56
2018-11-21T04:44:33.321Z,100970.02
2018-11-21T04:45:37.364Z,100966.14
2018-11-21T04:46:41.834Z,100971.87
2018-11-21T04:47:45.747Z,100970.66
2018-11-21T04:48:49.846Z,100968.94
2018-11-21T04:49:54.277Z,100969.97
2018-11-21T04:50:58.730Z,100971.42
2018-11-21T04:52:03.091Z,100975.14
2018-11-21T04:53:07.140Z,100979.19
2018-11-21T04:54:13.840Z,100981.03
2018-11-21T04:55:15.236Z,100988.63
2018-11-21T04:56:19.525Z,100994.44
2018-11-21T04:57:23.552Z,100997.07
2018-11-21T04:58:27.585Z,100998.91
2018-11-21T04:59:31.613Z,100996.91
2018-11-21T05:00:35.911Z,100995.70
2018-11-21T05:01:43.339Z,101000.63
2018-11-21T05:02:44.347Z,100997.24
2018-11-21T05:03:48.413Z,100991.69
2018-11-21T05:04:52.507Z,100993.53
2018-11-21T05:05:58.543Z,100993.23
2018-11-21T05:07:00.841Z,100998.59
2018-11-21T05:08:04.897Z,100995.56
2018-11-21T05:09:10.519Z,100998.76
2018-11-21T05:10:14.571Z,101008.41
2018-11-21T05:11:18.583Z,101003.32
2018-11-21T05:12:22.616Z,101006.87
2018-11-21T05:13:26.707Z,101013.14
2018-11-21T05:14:30.830Z,101018.09
2018-11-21T05:15:34.932Z,101023.42
2018-11-21T05:16:39.338Z,101029.23
2018-11-21T05:17:43.487Z,101034.55
2018-11-21T05:18:47.499Z,101034.64
2018-11-21T05:19:51.686Z,101034.31
2018-11-21T05:20:55.696Z,101032.64
2018-11-21T05:22:00.133Z,101036.64
2018-11-21T05:23:04.197Z,101023.60
2018-11-21T05:24:08.602Z,101028.86
2018-11-21T05:25:12.563Z,101030.69
2018-11-21T05:26:16.662Z,101030.78
2018-11-21T05:27:21.182Z,101026.05
2018-11-21T05:28:25.226Z,101023.52
2018-11-21T05:29:29.262Z,101020.20
2018-11-21T05:30:33.311Z,101022.83
2018-11-21T05:31:37.451Z,101025.98
2018-11-21T05:32:41.505Z,101028.60
2018-11-21T05:33:45.534Z,101031.62
2018-11-21T05:34:49.637Z,101030.41
2018-11-21T05:35:53.682Z,101030.47
2018-11-21T05:36:57.819Z,101039.27
2018-11-21T05:38:02.225Z,101029.38
2018-11-21T05:39:09.425Z,101032.55
2018-11-21T05:40:13.453Z,101040.53
2018-11-21T05:41:17.573Z,101035.40
2018-11-21T05:42:21.765Z,101036.71
2018-11-21T05:43:25.869Z,101038.97
2018-11-21T05:44:31.487Z,101029.94
2018-11-21T05:45:34.260Z,101026.06
2018-11-21T05:46:38.510Z,101026.16
2018-11-21T05:47:42.573Z,101020.11
2018-11-21T05:48:47.003Z,101022.73
2018-11-21T05:49:51.437Z,101020.66
2018-11-21T05:50:55.888Z,101018.95
2018-11-21T05:52:00.569Z,101022.89
2018-11-21T05:53:04.756Z,101025.67
2018-11-21T05:54:08.750Z,101037.09
2018-11-21T05:55:13.179Z,101036.73
2018-11-21T05:56:17.227Z,101038.95
2018-11-21T05:57:21.369Z,101044.20
2018-11-21T05:58:25.481Z,101045.91
2018-11-21T05:59:29.831Z,101041.58
2018-11-21T06:00:33.947Z,101051.23
2018-11-21T06:01:38.047Z,101047.74
2018-11-21T06:02:42.167Z,101059.50
2018-11-21T06:03:46.265Z,101058.64
2018-11-21T06:04:50.368Z,101055.11
2018-11-21T06:05:54.427Z,101058.64
2018-11-21T06:06:58.604Z,101065.61
2018-11-21T06:08:02.858Z,101070.45
2018-11-21T06:09:10.306Z,101069.55
2018-11-21T06:10:15.035Z,101072.53
2018-11-21T06:11:19.121Z,101075.55
2018-11-21T06:12:23.136Z,101076.88
2018-11-21T06:13:27.263Z,101075.10
2018-11-21T06:14:31.316Z,101074.64
2018-11-21T06:15:35.375Z,101079.03
2018-11-21T06:16:39.442Z,101080.81
2018-11-21T06:17:48.039Z,101075.55
2018-11-21T06:18:47.864Z,101072.94
2018-11-21T06:19:52.054Z,101079.50
2018-11-21T06:20:58.782Z,101067.83
2018-11-21T06:22:00.477Z,101074.80
2018-11-21T06:23:04.470Z,101080.95
2018-11-21T06:24:08.609Z,101080.20
2018-11-21T06:25:13.228Z,101078.48
2018-11-21T06:26:17.231Z,101080.25
2018-11-21T06:27:21.235Z,101079.86
2018-11-21T06:28:25.349Z,101082.42
2018-11-21T06:29:29.893Z,101079.03
2018-11-21T06:30:34.256Z,101080.86
2018-11-21T06:31:38.419Z,101082.17
2018-11-21T06:32:42.476Z,101078.23
2018-11-21T06:33:46.538Z,101074.76
2018-11-21T06:34:50.562Z,101072.59
2018-11-21T06:35:54.628Z,101074.30
2018-11-21T06:36:58.769Z,101073.91
2018-11-21T06:38:03.271Z,101087.03
2018-11-21T06:39:07.785Z,101087.97
2018-11-21T06:40:13.720Z,101086.27
2018-11-21T06:41:17.745Z,101091.11
2018-11-21T06:42:21.830Z,101082.88
2018-11-21T06:43:25.888Z,101093.73
2018-11-21T06:44:29.903Z,101098.23
2018-11-21T06:45:34.007Z,101104.78
2018-11-21T06:46:38.130Z,101102.70
2018-11-21T06:47:42.426Z,101105.39
2018-11-21T06:48:47.016Z,101107.56
2018-11-21T06:49:51.054Z,101108.02
2018-11-21T06:50:55.360Z,101108.88
2018-11-21T06:51:59.915Z,101117.52
2018-11-21T06:53:04.213Z,101114.43
2018-11-21T06:54:10.635Z,101120.14
2018-11-21T06:55:14.751Z,101110.95
2018-11-21T06:56:19.256Z,101116.59
2018-11-21T06:57:23.277Z,101113.97
2018-11-21T06:58:27.479Z,101120.48
2018-11-21T06:59:31.575Z,101116.14
2018-11-21T07:00:35.676Z,101119.98
2018-11-21T07:01:39.678Z,101111.66
2018-11-21T07:02:43.709Z,101107.72
2018-11-21T07:03:47.788Z,101108.58
2018-11-21T07:04:51.939Z,101109.48
2018-11-21T07:05:55.987Z,101107.72
2018-11-21T07:07:00.713Z,101105.55
2018-11-21T07:08:04.684Z,101108.12
2018-11-21T07:09:10.210Z,101115.08
2018-11-21T07:10:15.335Z,101117.22
2018-11-21T07:11:19.352Z,101118.62
2018-11-21T07:12:23.655Z,101115.53
2018-11-21T07:13:27.724Z,101122.95
2018-11-21T07:14:32.236Z,101130.34
2018-11-21T07:15:36.565Z,101124.17
2018-11-21T07:16:41.101Z,101129.89
2018-11-21T07:17:45.226Z,101134.62
2018-11-21T07:18:55.506Z,101138.87
2018-11-21T07:19:59.772Z,101135.33
2018-11-21T07:21:03.861Z,101139.17
2018-11-21T07:22:08.070Z,101140.89
2018-11-21T07:23:12.099Z,101139.88
2018-11-21T07:24:16.248Z,101141.59
2018-11-21T07:25:21.840Z,101141.96
2018-11-21T07:26:26.298Z,101145.38
2018-11-21T07:27:30.660Z,101152.34
2018-11-21T07:28:34.813Z,101154.03
2018-11-21T07:29:39.131Z,101155.28
2018-11-21T07:30:43.225Z,101153.52
2018-11-21T07:31:47.249Z,101159.59
2018-11-21T07:32:51.306Z,101159.93
2018-11-21T07:33:55.329Z,101164.33
2018-11-21T07:34:59.404Z,101170.03
2018-11-21T07:36:03.705Z,101168.72
2018-11-21T07:37:07.773Z,101173.97
2018-11-21T07:38:11.809Z,101175.69
2018-11-21T07:39:15.853Z,101178.31
2018-11-21T07:40:19.916Z,101176.54
2018-11-21T07:41:24.006Z,101174.28
2018-11-21T07:42:28.122Z,101174.68
2018-11-21T07:43:32.175Z,101176.84
2018-11-21T07:44:36.208Z,101176.30
2018-11-21T07:45:40.272Z,101174.98
2018-11-21T07:46:44.373Z,101175.84
2018-11-21T07:47:49.043Z,101177.09
2018-11-21T07:48:53.067Z,101172.77
2018-11-21T07:49:57.134Z,101173.67
2018-11-21T07:51:02.432Z,101174.07
2018-11-21T07:52:06.048Z,101177.61
2018-11-21T07:53:10.152Z,101176.30
2018-11-21T07:54:14.248Z,101181.03
2018-11-21T07:55:18.267Z,101175.78
2018-11-21T07:57:20.229Z,101174.47
2018-11-21T07:58:25.494Z,101177.92
2018-11-21T07:59:29.750Z,101174.47
2018-11-21T08:01:30.643Z,101183.66
2018-11-21T08:02:38.091Z,101194.53
2018-11-21T08:03:44.322Z,101188.98
2018-11-21T08:04:54.902Z,101190.75
2018-11-21T08:06:05.229Z,101194.23
2018-11-21T08:07:37.514Z,101197.31
2018-11-21T08:09:06.494Z,101199.02
2018-11-21T08:10:47.967Z,101204.67
2018-11-21T08:12:10.033Z,101206.91
2018-11-21T08:13:32.237Z,101216.50
2018-11-21T08:14:54.815Z,101206.50
2018-11-21T08:16:20.981Z,101206.10
2018-11-21T08:17:53.756Z,101206.96
2018-11-21T08:19:31.925Z,101205.73
2018-11-21T08:20:58.082Z,101213.06
2018-11-21T08:22:24.041Z,101219.17
2018-11-21T08:23:36.850Z,101216.86
2018-11-21T08:25:02.958Z,101222.52
2018-11-21T08:26:35.071Z,101225.91
2018-11-21T08:27:57.523Z,101229.39
2018-11-21T08:29:01.703Z,101229.33
2018-11-21T08:30:06.078Z,101232.73
2018-11-21T08:31:10.495Z,101227.88
2018-11-21T08:32:14.605Z,101234.34
2018-11-21T08:33:18.752Z,101237.77
2018-11-21T08:34:22.831Z,101235.91
2018-11-21T08:35:26.855Z,101240.16
2018-11-21T08:36:31.271Z,101233.14
2018-11-21T08:37:35.488Z,101233.84
2018-11-21T08:38:39.447Z,101238.64
2018-11-21T08:39:43.472Z,101229.36
2018-11-21T08:40:47.482Z,101227.52
2018-11-21T08:41:51.957Z,101223.03
2018-11-21T08:42:56.001Z,101225.14
2018-11-21T08:44:00.207Z,101233.34
2018-11-21T08:45:04.822Z,101234.56
2018-11-21T08:46:10.178Z,101234.50
2018-11-21T08:47:14.469Z,101232.27
2018-11-21T08:48:19.279Z,101233.89
2018-11-21T08:49:23.732Z,101232.94
2018-11-21T08:50:27.751Z,101232.83
2018-11-21T08:51:31.804Z,101237.53
2018-11-21T08:52:36.128Z,101240.56
2018-11-21T08:53:40.597Z,101241.32
2018-11-21T08:54:44.827Z,101239.45
2018-11-21T08:55:48.820Z,101241.17
2018-11-21T08:56:52.921Z,101245.51
2018-11-21T08:57:56.935Z,101247.98
2018-11-21T08:59:01.108Z,101246.22
2018-11-21T09:00:06.172Z,101247.44
2018-11-21T09:01:10.552Z,101252.17
2018-11-21T09:02:14.539Z,101254.25
2018-11-21T09:03:18.670Z,101258.96
2018-11-21T09:04:22.763Z,101257.19
2018-11-21T09:05:26.978Z,101267.55
2018-11-21T09:06:31.107Z,101268.81
2018-11-21T09:07:35.503Z,101267.89
2018-11-21T09:08:39.509Z,101266.58
2018-11-21T09:09:43.589Z,101267.34
2018-11-21T09:10:47.645Z,101276.94
2018-11-21T09:11:51.938Z,101272.05
2018-11-21T09:12:55.952Z,101265.41
2018-11-21T09:14:00.030Z,101268.80
2018-11-21T09:15:04.622Z,101267.03
2018-11-21T09:16:08.654Z,101272.69
2018-11-21T09:17:12.726Z,101277.00
2018-11-21T09:18:16.781Z,101279.56
2018-11-21T09:19:20.824Z,101280.42
2018-11-21T09:20:24.912Z,101275.59
2018-11-21T09:21:28.922Z,101277.73
2018-11-21T09:22:33.010Z,101284.31
2018-11-21T09:23:37.204Z,101285.63
2018-11-21T09:24:41.142Z,101288.65
2018-11-21T09:25:45.197Z,101291.28
2018-11-21T09:26:49.242Z,101284.25
2018-11-21T09:27:53.363Z,101282.47
2018-11-21T09:28:57.771Z,101283.70
2018-11-21T09:30:02.149Z,101293.30
2018-11-21T09:31:06.242Z,101292.75
2018-11-21T09:32:10.279Z,101290.52
2018-11-21T09:33:14.330Z,101293.08
2018-11-21T09:34:18.382Z,101291.22
2018-11-21T09:35:22.372Z,101295.55
2018-11-21T09:36:26.384Z,101292.77
2018-11-21T09:37:30.760Z,101289.19
2018-11-21T09:38:34.870Z,101280.84
2018-11-21T09:39:38.857Z,101288.21
2018-11-21T09:40:43.257Z,101292.06
2018-11-21T09:41:47.264Z,101303.84
2018-11-21T09:42:52.727Z,101305.52
2018-11-21T09:43:56.886Z,101308.55
2018-11-21T09:45:01.343Z,101313.66
2018-11-21T09:46:05.615Z,101314.91
2018-11-21T09:47:09.675Z,101315.67
2018-11-21T09:48:13.800Z,101318.23
2018-11-21T09:49:17.799Z,101322.95
2018-11-21T09:50:32.010Z,101323.34
2018-11-21T09:51:36.092Z,101328.91
2018-11-21T09:52:40.547Z,101322.73
2018-11-21T09:53:44.579Z,101326.58
2018-11-21T09:54:48.666Z,101326.13
2018-11-21T09:55:53.576Z,101326.06
2018-11-21T09:56:57.633Z,101327.73
2018-11-21T09:58:01.739Z,101325.91
2018-11-21T09:59:05.750Z,101330.61
2018-11-21T10:00:47.882Z,101332.33
2018-11-21T10:02:28.905Z,101334.41
2018-11-21T10:03:34.493Z,101334.00
2018-11-21T10:04:38.636Z,101332.69
2018-11-21T10:05:43.211Z,101336.27
2018-11-21T10:06:47.318Z,101333.64
2018-11-21T10:08:08.847Z,101338.91
2018-11-21T10:09:15.341Z,101340.68
2018-11-21T10:10:19.409Z,101343.62
2018-11-21T10:11:23.416Z,101343.06
2018-11-21T10:12:27.554Z,101340.83
2018-11-21T10:13:31.851Z,101346.88
2018-11-21T10:14:36.220Z,101345.02
2018-11-21T10:15:40.274Z,101344.45
2018-11-21T10:16:44.318Z,101339.98
2018-11-21T10:17:48.356Z,101345.55
2018-11-21T10:18:54.022Z,101348.48
2018-11-21T10:19:58.035Z,101346.25
2018-11-21T10:21:02.328Z,101353.13
2018-11-21T10:22:06.383Z,101351.75
2018-11-21T10:23:10.629Z,101343.85
2018-11-21T10:24:14.678Z,101347.25
2018-11-21T10:25:18.710Z,101336.25
2018-11-21T10:26:22.819Z,101328.35
2018-11-21T10:27:26.835Z,101327.49
2018-11-21T10:28:30.884Z,101326.58
2018-11-21T10:29:35.455Z,101330.53
2018-11-21T10:30:39.225Z,101334.08
2018-11-21T10:31:43.301Z,101333.69
2018-11-21T10:32:47.334Z,101330.59
2018-11-21T10:33:51.642Z,101330.59
2018-11-21T10:34:55.823Z,101328.81
2018-11-21T10:35:59.911Z,101327.89
2018-11-21T10:37:04.229Z,101328.35
2018-11-21T10:38:08.329Z,101328.81
2018-11-21T10:39:12.510Z,101331.45
2018-11-21T10:40:16.834Z,101325.32
2018-11-21T10:41:21.026Z,101327.09
2018-11-21T10:42:25.063Z,101328.42
2018-11-21T10:43:29.488Z,101325.42
2018-11-21T10:44:33.569Z,101330.69
2018-11-21T10:45:37.655Z,101332.06
2018-11-21T10:46:41.977Z,101328.58
2018-11-21T10:49:27.661Z,101310.68
2018-11-21T10:50:33.031Z,101312.62
2018-11-21T10:51:38.315Z,101313.94
2018-11-21T10:52:44.380Z,101306.89
2018-11-21T10:53:49.849Z,101316.41
2018-11-21T10:54:55.360Z,101321.21
2018-11-21T10:56:00.713Z,101322.46
2018-11-21T10:57:06.278Z,101323.69
2018-11-21T10:58:12.531Z,101324.94
2018-11-21T10:59:17.938Z,101324.02
2018-11-21T11:00:41.207Z,101325.92
2018-11-21T11:02:03.860Z,101327.08
2018-11-21T11:03:11.583Z,101329.02
2018-11-21T11:04:40.228Z,101324.41
2018-11-21T11:06:04.152Z,101328.14
2018-11-21T11:07:31.091Z,101325.27
2018-11-21T11:08:54.116Z,101335.48
2018-11-21T11:10:16.981Z,101329.48
2018-11-21T11:11:50.192Z,101332.73
2018-11-21T11:13:23.444Z,101332.47
2018-11-21T11:15:06.025Z,101336.58
2018-11-21T11:16:30.022Z,101335.09
2018-11-21T11:17:52.823Z,101334.07
2018-11-21T11:19:15.387Z,101340.95
2018-11-21T11:20:39.399Z,101345.77
2018-11-21T11:22:02.431Z,101355.74
2018-11-21T11:23:21.054Z,101352.64
2018-11-21T11:24:43.899Z,101351.26
2018-11-21T11:26:23.210Z,101351.26
2018-11-21T11:27:53.574Z,101348.06
2018-11-21T11:29:21.686Z,101349.38
2018-11-21T11:30:44.734Z,101354.82
2018-11-21T11:32:08.795Z,101355.84
2018-11-21T11:33:31.550Z,101349.89
2018-11-21T11:35:04.722Z,101352.13
2018-11-21T11:36:31.723Z,101354.77
2018-11-21T11:37:55.732Z,101354.00
2018-11-21T11:39:18.723Z,101347.58
2018-11-21T11:40:48.311Z,101347.58
2018-11-21T11:42:16.996Z,101348.11
2018-11-21T11:43:39.989Z,101338.53
2018-11-21T11:45:14.497Z,101342.84
2018-11-21T11:46:37.859Z,101348.67
2018-11-21T11:47:59.905Z,101343.41
2018-11-21T11:49:27.402Z,101347.36
2018-11-21T11:50:47.079Z,101349.07
2018-11-21T11:52:11.596Z,101348.11
2018-11-21T11:53:43.820Z,101349.36
2018-11-21T11:55:13.653Z,101353.61
2018-11-21T11:56:39.925Z,101344.68
2018-11-21T11:58:00.021Z,101349.72
2018-11-21T11:59:32.496Z,101343.35
2018-11-21T12:01:05.803Z,101341.77
2018-11-21T12:02:29.362Z,101340.49
2018-11-21T12:03:57.745Z,101341.57
2018-11-21T12:05:11.655Z,101344.72
2018-11-21T12:06:34.219Z,101340.88
2018-11-21T12:07:58.358Z,101344.88
2018-11-21T12:09:29.347Z,101349.98
2018-11-21T12:10:53.161Z,101350.59
2018-11-21T12:12:26.617Z,101349.56
2018-11-21T12:13:50.769Z,101347.78
2018-11-21T12:15:20.620Z,101350.42
2018-11-21T12:16:44.838Z,101353.42
2018-11-21T12:18:12.373Z,101353.06
2018-11-21T12:19:30.257Z,101353.88
2018-11-21T12:20:54.293Z,101353.70
2018-11-21T12:22:19.176Z,101348.36
2018-11-21T12:23:41.655Z,101349.50
2018-11-21T12:25:20.812Z,101351.21
2018-11-21T12:26:51.618Z,101347.25
2018-11-21T12:28:24.450Z,101350.25
2018-11-21T12:29:51.533Z,101349.72
2018-11-21T12:31:13.578Z,101345.66
2018-11-21T12:32:40.337Z,101344.27
2018-11-21T12:34:02.785Z,101346.72
2018-11-21T12:35:43.132Z,101342.19
2018-11-21T12:37:05.758Z,101333.73
2018-11-21T12:38:20.525Z,101340.34
2018-11-21T12:39:37.166Z,101335.98
2018-11-21T12:41:03.959Z,101336.73
2018-11-21T12:42:28.134Z,101338.05
2018-11-21T12:43:49.930Z,101334.87
2018-11-21T12:45:32.699Z,101339.23
2018-11-21T12:47:15.103Z,101335.27
2018-11-21T12:48:37.569Z,101339.59
2018-11-21T12:50:19.973Z,101341.77
2018-11-21T12:51:50.523Z,101339.13
2018-11-21T12:53:20.492Z,101338.73
2018-11-21T12:54:53.408Z,101336.02
2018-11-21T12:56:26.466Z,101345.08